createdAt,value
2018-11-12T00:00:17.528Z,58.13
2018-11-12T00:02:48.658Z,57.87
2018-11-12T00:05:18.063Z,56.29
2018-11-12T00:07:47.121Z,57.29
2018-11-12T00:10:16.431Z,58.25
2018-11-12T00:12:45.224Z,57.46
2018-11-12T00:15:14.322Z,56.00
2018-11-12T00:17:43.139Z,58.23
2018-11-12T00:20:13.485Z,56.67
2018-11-12T00:22:43.447Z,57.40
2018-11-12T00:25:12.236Z,58.67
2018-11-12T00:27:41.143Z,56.86
2018-11-12T00:30:18.774Z,56.44
2018-11-12T00:32:48.166Z,57.64
2018-11-12T00:35:17.453Z,57.68
2018-11-12T00:37:46.300Z,57.61
2018-11-12T00:40:16.408Z,57.23
2018-11-12T00:42:45.911Z,56.59
2018-11-12T00:45:15.049Z,57.17
2018-11-12T00:47:44.320Z,57.14
2018-11-12T00:50:14.416Z,56.83
2018-11-12T00:52:43.515Z,57.30
2018-11-12T00:55:13.882Z,58.98
2018-11-12T00:57:42.942Z,56.84
2018-11-12T01:00:20.371Z,56.94
2018-11-12T01:02:50.252Z,57.44
2018-11-12T01:05:19.680Z,57.82
2018-11-12T01:07:48.911Z,56.45
2018-11-12T01:10:18.861Z,57.27
2018-11-12T01:12:48.626Z,56.80
2018-11-12T01:15:18.815Z,57.94
2018-11-12T01:17:47.612Z,58.19
2018-11-12T01:20:17.076Z,58.91
2018-11-12T01:22:45.861Z,58.41
2018-11-12T01:25:15.456Z,58.53
2018-11-12T01:27:44.634Z,57.28
2018-11-12T01:30:14.522Z,56.69
2018-11-12T01:32:43.899Z,57.74
2018-11-12T01:35:13.607Z,57.35
2018-11-12T01:37:42.627Z,57.49
2018-11-12T01:40:12.262Z,58.05
2018-11-12T01:42:41.638Z,58.22
2018-11-12T01:45:12.627Z,58.27
2018-11-12T01:47:41.699Z,57.11
2018-11-12T01:50:11.883Z,58.81
2018-11-12T01:52:41.969Z,57.94
2018-11-12T01:55:11.905Z,58.07
2018-11-12T01:57:40.675Z,58.14
2018-11-12T02:00:13.574Z,58.85
2018-11-12T02:02:43.079Z,58.37
2018-11-12T02:05:11.892Z,59.13
2018-11-12T02:07:40.968Z,58.28
2018-11-12T02:10:11.991Z,58.67
2018-11-12T02:12:41.186Z,58.16
2018-11-12T02:15:12.403Z,58.43
2018-11-12T02:17:41.352Z,58.27
2018-11-12T02:20:11.719Z,57.88
2018-11-12T02:22:40.838Z,57.86
2018-11-12T02:25:10.572Z,57.79
2018-11-12T02:27:39.823Z,58.38
2018-11-12T02:30:12.518Z,59.10
2018-11-12T02:32:41.325Z,56.87
2018-11-12T02:35:10.700Z,57.99
2018-11-12T02:37:40.247Z,58.13
2018-11-12T02:40:10.600Z,57.61
2018-11-12T02:42:39.430Z,56.24
2018-11-12T02:45:11.425Z,56.88
2018-11-12T02:47:41.046Z,58.44
2018-11-12T02:50:12.081Z,58.04
2018-11-12T02:52:41.423Z,58.39
2018-11-12T02:55:12.807Z,58.05
2018-11-12T02:57:42.567Z,57.86
2018-11-12T03:00:15.600Z,58.12
2018-11-12T03:02:44.771Z,58.26
2018-11-12T03:05:14.319Z,58.15
2018-11-12T03:07:43.414Z,57.40
2018-11-12T03:10:14.789Z,57.57
2018-11-12T03:12:43.658Z,59.00
2018-11-12T03:15:13.237Z,59.06
2018-11-12T03:17:42.927Z,58.09
2018-11-12T03:20:14.292Z,58.27
2018-11-12T03:22:43.208Z,58.04
2018-11-12T03:25:14.401Z,58.82
2018-11-12T03:27:43.971Z,58.36
2018-11-12T03:30:14.362Z,56.79
2018-11-12T03:32:44.083Z,57.37
2018-11-12T03:35:13.543Z,58.28
2018-11-12T03:37:43.598Z,58.59
2018-11-12T03:40:14.556Z,57.34
2018-11-12T03:42:44.341Z,58.36
2018-11-12T03:45:16.566Z,58.57
2018-11-12T03:47:45.615Z,57.86
2018-11-12T03:50:16.516Z,59.01
2018-11-12T03:52:45.675Z,59.33
2018-11-12T03:55:17.082Z,58.64
2018-11-12T03:57:46.135Z,59.07
2018-11-12T04:00:17.466Z,57.79
2018-11-12T04:02:46.718Z,58.83
2018-11-12T04:05:15.727Z,58.04
2018-11-12T04:07:44.584Z,59.00
2018-11-12T04:10:17.509Z,58.96
2018-11-12T04:12:46.328Z,57.87
2018-11-12T04:15:19.663Z,58.83
2018-11-12T04:17:48.615Z,58.88
2018-11-12T04:20:18.681Z,58.08
2018-11-12T04:23:03.535Z,58.48
2018-11-12T04:25:34.012Z,58.74
2018-11-12T04:28:03.092Z,58.02
2018-11-12T04:30:31.921Z,58.62
2018-11-12T04:33:00.751Z,57.98
2018-11-12T04:35:29.879Z,57.88
2018-11-12T04:37:58.752Z,58.67
2018-11-12T04:40:27.904Z,58.01
2018-11-12T04:42:56.731Z,58.51
2018-11-12T04:45:25.976Z,57.54
2018-11-12T04:47:55.369Z,57.23
2018-11-12T04:50:25.724Z,58.24
2018-11-12T04:52:54.743Z,58.01
2018-11-12T04:55:24.395Z,58.22
2018-11-12T04:57:53.308Z,58.44
2018-11-12T05:00:23.483Z,57.95
2018-11-12T05:02:52.601Z,58.11
2018-11-12T05:05:22.833Z,58.55
2018-11-12T05:07:51.896Z,57.97
2018-11-12T05:10:22.138Z,57.99
2018-11-12T05:12:51.649Z,58.37
2018-11-12T05:15:21.636Z,58.50
2018-11-12T05:17:50.753Z,57.63
2018-11-12T05:20:21.733Z,57.53
2018-11-12T05:22:50.764Z,57.74
2018-11-12T05:25:19.747Z,57.41
2018-11-12T05:27:48.917Z,57.54
2018-11-12T05:30:22.673Z,58.20
2018-11-12T05:32:52.062Z,58.29
2018-11-12T05:35:22.179Z,57.38
2018-11-12T05:37:51.087Z,58.03
2018-11-12T05:40:21.183Z,58.14
2018-11-12T05:42:50.372Z,58.07
2018-11-12T05:45:20.282Z,58.19
2018-11-12T05:47:49.284Z,58.78
2018-11-12T05:50:19.286Z,57.78
2018-11-12T05:52:49.650Z,58.26
2018-11-12T05:55:20.019Z,58.07
2018-11-12T05:57:49.307Z,57.12
2018-11-12T06:00:23.687Z,57.77
2018-11-12T06:02:52.492Z,57.96
2018-11-12T06:05:21.399Z,58.45
2018-11-12T06:07:50.210Z,57.91
2018-11-12T06:10:21.090Z,58.07
2018-11-12T06:12:50.166Z,58.05
2018-11-12T06:15:19.032Z,57.76
2018-11-12T06:17:48.472Z,57.37
2018-11-12T06:20:21.338Z,57.86
2018-11-12T06:22:50.610Z,58.70
2018-11-12T06:25:21.210Z,57.93
2018-11-12T06:27:50.319Z,57.75
2018-11-12T06:30:20.502Z,57.06
2018-11-12T06:32:49.315Z,57.43
2018-11-12T06:35:19.145Z,58.94
2018-11-12T06:37:48.777Z,59.30
2018-11-12T06:40:18.946Z,58.88
2018-11-12T06:42:47.975Z,57.93
2018-11-12T06:45:19.067Z,58.72
2018-11-12T06:47:48.848Z,58.30
2018-11-12T06:50:19.349Z,58.32
2018-11-12T06:52:48.344Z,58.30
2018-11-12T06:55:17.851Z,58.42
2018-11-12T06:57:47.400Z,57.99
2018-11-12T07:00:19.305Z,58.58
2018-11-12T07:02:48.791Z,58.20
2018-11-12T07:05:18.138Z,58.44
2018-11-12T07:07:46.983Z,58.35
2018-11-12T07:10:17.105Z,57.17
2018-11-12T07:12:46.822Z,57.23
2018-11-12T07:15:17.179Z,58.19
2018-11-12T07:17:46.172Z,57.25
2018-11-12T07:20:16.323Z,57.62
2018-11-12T07:22:45.283Z,57.41
2018-11-12T07:25:15.089Z,56.97
2018-11-12T07:27:44.044Z,57.64
2018-11-12T07:30:16.052Z,56.79
2018-11-12T07:32:45.960Z,57.23
2018-11-12T07:35:15.516Z,57.63
2018-11-12T07:37:45.723Z,56.68
2018-11-12T07:40:15.329Z,57.46
2018-11-12T07:42:44.658Z,57.33
2018-11-12T07:45:23.751Z,56.58
2018-11-12T07:47:53.707Z,57.38
2018-11-12T07:50:23.866Z,56.90
2018-11-12T07:52:53.103Z,56.52
2018-11-12T07:55:23.074Z,57.26
2018-11-12T07:57:53.482Z,56.67
2018-11-12T08:00:25.166Z,56.29
2018-11-12T08:03:01.241Z,56.42
2018-11-12T08:05:30.172Z,56.25
2018-11-12T08:07:58.954Z,56.44
2018-11-12T08:10:27.864Z,56.21
2018-11-12T08:12:56.698Z,59.21
2018-11-12T08:15:25.544Z,58.09
2018-11-12T08:17:54.361Z,58.22
2018-11-12T08:20:24.432Z,57.38
2018-11-12T08:22:53.352Z,57.36
2018-11-12T08:25:22.502Z,57.93
2018-11-12T08:27:51.371Z,57.78
2018-11-12T08:30:22.799Z,57.01
2018-11-12T08:32:53.070Z,57.91
2018-11-12T08:35:22.368Z,56.98
2018-11-12T08:37:52.071Z,56.84
2018-11-12T08:40:22.228Z,56.48
2018-11-12T08:42:51.158Z,56.24
2018-11-12T08:45:20.423Z,56.71
2018-11-12T08:47:51.012Z,57.08
2018-11-12T08:50:22.503Z,57.74
2018-11-12T08:52:52.086Z,56.98
2018-11-12T08:55:22.658Z,56.85
2018-11-12T08:57:52.951Z,56.94
2018-11-12T09:00:22.724Z,57.28
2018-11-12T09:02:51.573Z,57.64
2018-11-12T09:05:22.120Z,58.31
2018-11-12T09:07:53.029Z,57.04
2018-11-12T09:10:23.767Z,57.46
2018-11-12T09:12:53.108Z,57.89
2018-11-12T09:15:22.108Z,57.41
2018-11-12T09:17:51.260Z,56.89
2018-11-12T09:20:25.213Z,57.24
2018-11-12T09:22:54.579Z,57.51
2018-11-12T09:25:25.848Z,56.84
2018-11-12T09:27:54.656Z,57.45
2018-11-12T09:30:25.053Z,56.78
2018-11-12T09:32:54.342Z,57.33
2018-11-12T09:35:32.119Z,57.16
2018-11-12T09:38:02.052Z,56.75
2018-11-12T09:40:35.447Z,57.31
2018-11-12T09:43:04.491Z,56.81
2018-11-12T09:45:33.688Z,57.18
2018-11-12T09:48:03.001Z,57.10
2018-11-12T09:50:32.003Z,56.07
2018-11-12T09:53:01.704Z,55.80
2018-11-12T09:55:31.739Z,55.85
2018-11-12T09:58:04.176Z,56.11
2018-11-12T10:00:33.149Z,56.82
2018-11-12T10:03:03.077Z,56.63
2018-11-12T10:05:33.151Z,56.65
2018-11-12T10:08:10.637Z,56.33
2018-11-12T10:10:44.936Z,56.44
2018-11-12T10:13:16.991Z,56.72
2018-11-12T10:15:47.072Z,56.00
2018-11-12T10:20:43.744Z,55.98
2018-11-12T10:23:12.491Z,56.33
2018-11-12T10:25:41.324Z,56.12
2018-11-12T10:28:10.471Z,55.75
2018-11-12T10:30:39.373Z,56.09
2018-11-12T10:33:08.540Z,56.81
2018-11-12T10:35:37.628Z,57.61
2018-11-12T10:38:07.479Z,59.49
2018-11-12T10:40:36.268Z,57.99
2018-11-12T10:43:05.188Z,57.35
2018-11-12T10:45:34.201Z,58.16
2018-11-12T10:48:03.098Z,57.62
2018-11-12T10:50:32.123Z,58.29
2018-11-12T10:53:00.926Z,58.43
2018-11-12T10:55:30.099Z,56.99
2018-11-12T10:57:59.063Z,57.15
2018-11-12T11:00:38.019Z,57.52
2018-11-12T11:03:20.138Z,59.64
2018-11-12T11:05:50.761Z,59.44
2018-11-12T11:08:19.694Z,58.62
2018-11-12T11:10:48.728Z,59.42
2018-11-12T11:13:17.756Z,58.49
2018-11-12T11:15:46.579Z,57.22
2018-11-12T11:18:15.459Z,57.56
2018-11-12T11:20:44.239Z,57.65
2018-11-12T11:23:13.060Z,55.80
2018-11-12T11:25:41.867Z,57.91
2018-11-12T11:28:10.795Z,58.17
2018-11-12T11:30:39.576Z,56.02
2018-11-12T11:33:11.234Z,56.38
2018-11-12T11:35:40.041Z,56.87
2018-11-12T11:38:08.831Z,56.35
2018-11-12T11:40:37.654Z,57.41
2018-11-12T11:43:06.574Z,56.01
2018-11-12T11:45:35.355Z,57.79
2018-11-12T11:48:04.367Z,55.34
2018-11-12T11:50:33.354Z,56.96
2018-11-12T11:53:02.644Z,55.99
2018-11-12T11:55:31.623Z,56.48
2018-11-12T11:58:00.588Z,58.89
2018-11-12T12:00:30.143Z,57.95
2018-11-12T12:02:59.641Z,59.19
2018-11-12T12:05:28.984Z,56.49
2018-11-12T12:07:58.447Z,58.31
2018-11-12T12:10:27.430Z,56.07
2018-11-12T12:12:56.396Z,58.94
2018-11-12T12:15:25.274Z,57.46
2018-11-12T12:17:54.087Z,56.39
2018-11-12T12:20:24.294Z,56.35
2018-11-12T12:22:53.641Z,55.41
2018-11-12T12:25:22.463Z,56.30
2018-11-12T12:27:51.510Z,59.86
2018-11-12T12:30:22.843Z,58.85
2018-11-12T12:32:52.718Z,57.06
2018-11-12T12:35:21.711Z,54.61
2018-11-12T12:37:50.783Z,56.27
2018-11-12T12:40:20.704Z,59.12
2018-11-12T12:42:49.821Z,58.24
2018-11-12T12:45:19.886Z,55.76
2018-11-12T12:47:49.203Z,60.21
2018-11-12T12:50:18.828Z,59.05
2018-11-12T12:52:47.615Z,61.47
2018-11-12T12:55:17.150Z,59.70
2018-11-12T12:57:46.420Z,62.06
2018-11-12T13:00:20.580Z,62.66
2018-11-12T13:02:49.535Z,62.48
2018-11-12T13:05:18.895Z,62.61
2018-11-12T13:07:47.708Z,62.34
2018-11-12T13:10:18.187Z,62.08
2018-11-12T13:12:47.323Z,62.77
2018-11-12T13:15:17.361Z,62.25
2018-11-12T13:17:46.896Z,62.56
2018-11-12T13:20:17.055Z,60.49
2018-11-12T13:22:46.562Z,62.09
2018-11-12T13:25:15.727Z,57.25
2018-11-12T13:27:45.332Z,59.58
2018-11-12T13:30:15.848Z,59.93
2018-11-12T13:32:45.243Z,60.49
2018-11-12T13:35:15.231Z,60.58
2018-11-12T13:37:44.053Z,59.98
2018-11-12T13:40:15.440Z,59.48
2018-11-12T13:42:45.981Z,59.53
2018-11-12T13:45:14.967Z,59.18
2018-11-12T13:47:43.906Z,55.15
2018-11-12T13:50:14.195Z,58.33
2018-11-12T13:52:43.667Z,58.51
2018-11-12T13:55:13.512Z,59.40
2018-11-12T13:57:42.328Z,60.49
2018-11-12T14:00:13.591Z,60.18
2018-11-12T14:02:43.420Z,59.26
2018-11-12T14:05:13.939Z,59.14
2018-11-12T14:07:43.288Z,59.22
2018-11-12T14:10:13.441Z,60.32
2018-11-12T14:12:42.671Z,58.97
2018-11-12T14:15:14.045Z,60.10
2018-11-12T14:17:44.245Z,61.53
2018-11-12T14:20:13.937Z,57.75
2018-11-12T14:22:43.143Z,59.94
2018-11-12T14:25:13.370Z,59.25
2018-11-12T14:27:42.500Z,54.72
2018-11-12T14:30:13.709Z,56.35
2018-11-12T14:32:42.724Z,56.77
2018-11-12T14:35:12.652Z,56.83
2018-11-12T14:37:42.413Z,55.74
2018-11-12T14:40:12.125Z,54.68
2018-11-12T14:42:41.372Z,55.72
2018-11-12T14:45:12.397Z,56.03
2018-11-12T14:47:41.937Z,52.92
2018-11-12T14:50:10.781Z,54.35
2018-11-12T14:52:39.754Z,55.17
2018-11-12T14:55:09.681Z,54.14
2018-11-12T14:57:38.583Z,53.58
2018-11-12T15:00:17.843Z,53.04
2018-11-12T15:02:47.233Z,53.64
2018-11-12T15:05:17.093Z,54.73
2018-11-12T15:07:45.901Z,54.34
2018-11-12T15:10:15.143Z,54.80
2018-11-12T15:12:44.528Z,54.94
2018-11-12T15:15:13.939Z,54.40
2018-11-12T15:17:45.965Z,53.89
2018-11-12T15:20:16.191Z,54.84
2018-11-12T15:22:45.209Z,55.34
2018-11-12T15:25:18.657Z,54.54
2018-11-12T15:27:47.444Z,54.95
2018-11-12T15:30:17.843Z,53.39
2018-11-12T15:32:47.534Z,54.50
2018-11-12T15:35:16.519Z,55.14
2018-11-12T15:37:46.130Z,54.12
2018-11-12T15:40:15.402Z,54.28
2018-11-12T15:42:44.181Z,54.03
2018-11-12T15:45:15.723Z,53.25
2018-11-12T15:47:45.423Z,53.13
2018-11-12T15:50:16.835Z,52.42
2018-11-12T15:52:45.794Z,52.33
2018-11-12T15:55:15.829Z,53.06
2018-11-12T15:57:43.925Z,53.34
2018-11-12T16:00:17.032Z,53.09
2018-11-12T16:02:46.020Z,52.55
2018-11-12T16:05:15.096Z,53.92
2018-11-12T16:07:44.105Z,53.18
2018-11-12T16:10:15.368Z,53.20
2018-11-12T16:12:44.172Z,53.68
2018-11-12T16:15:14.009Z,54.42
2018-11-12T16:17:43.331Z,53.96
2018-11-12T16:20:22.783Z,53.57
2018-11-12T16:22:52.143Z,53.82
2018-11-12T16:25:21.246Z,53.85
2018-11-12T16:27:50.063Z,54.61
2018-11-12T16:30:18.931Z,54.62
2018-11-12T16:32:48.092Z,54.49
2018-11-12T16:35:18.923Z,54.46
2018-11-12T16:37:48.578Z,55.32
2018-11-12T16:40:17.983Z,54.61
2018-11-12T16:42:47.727Z,54.71
2018-11-12T16:45:17.043Z,55.43
2018-11-12T16:47:47.237Z,55.35
2018-11-12T16:50:16.508Z,54.78
2018-11-12T16:52:45.300Z,55.12
2018-11-12T16:55:17.151Z,55.93
2018-11-12T16:57:46.245Z,55.08
2018-11-12T17:00:16.432Z,54.39
2018-11-12T17:02:45.479Z,55.29
2018-11-12T17:05:16.647Z,56.09
2018-11-12T17:07:45.471Z,55.16
2018-11-12T17:10:15.693Z,55.24
2018-11-12T17:12:45.648Z,55.92
2018-11-12T17:15:15.012Z,55.30
2018-11-12T17:17:44.358Z,55.86
2018-11-12T17:20:14.715Z,55.74
2018-11-12T17:22:43.523Z,55.78
2018-11-12T17:25:13.467Z,55.80
2018-11-12T17:27:42.913Z,55.58
2018-11-12T17:30:13.485Z,56.63
2018-11-12T17:32:42.969Z,56.42
2018-11-12T17:35:13.474Z,56.62
2018-11-12T17:37:42.779Z,55.83
2018-11-12T17:40:16.448Z,56.37
2018-11-12T17:42:46.125Z,56.46
2018-11-12T17:45:16.348Z,56.02
2018-11-12T17:47:46.262Z,56.63
2018-11-12T17:50:15.474Z,55.83
2018-11-12T17:52:44.298Z,55.54
2018-11-12T17:55:13.791Z,56.69
2018-11-12T17:57:42.744Z,56.37
2018-11-12T18:00:14.705Z,56.55
2018-11-12T18:02:43.492Z,55.64
2018-11-12T18:05:12.504Z,55.73
2018-11-12T18:07:42.063Z,55.84
2018-11-12T18:10:12.205Z,55.82
2018-11-12T18:12:41.021Z,55.76
2018-11-12T18:15:12.531Z,55.59
2018-11-12T18:17:41.675Z,56.18
2018-11-12T18:20:14.399Z,56.07
2018-11-12T18:22:43.523Z,55.56
2018-11-12T18:25:12.667Z,55.93
2018-11-12T18:27:41.986Z,55.37
2018-11-12T18:30:13.349Z,55.79
2018-11-12T18:32:42.297Z,56.08
2018-11-12T18:35:11.603Z,55.55
2018-11-12T18:37:40.448Z,55.40
2018-11-12T18:40:11.296Z,56.69
2018-11-12T18:42:40.715Z,56.36
2018-11-12T18:45:12.390Z,56.81
2018-11-12T18:47:41.905Z,55.61
2018-11-12T18:50:15.873Z,56.38
2018-11-12T18:52:45.272Z,56.13
2018-11-12T18:55:17.547Z,56.42
2018-11-12T18:57:47.072Z,55.54
2018-11-12T19:00:17.192Z,55.72
2018-11-12T19:02:46.455Z,56.76
2018-11-12T19:05:19.850Z,56.65
2018-11-12T19:07:50.278Z,55.97
2018-11-12T19:10:22.862Z,56.52
2018-11-12T19:12:52.139Z,55.90
2018-11-12T19:15:22.548Z,55.58
2018-11-12T19:17:55.088Z,56.48
2018-11-12T19:20:24.191Z,56.27
2018-11-12T19:22:53.555Z,57.41
2018-11-12T19:25:22.386Z,56.65
2018-11-12T19:27:51.204Z,56.73
2018-11-12T19:30:21.400Z,56.23
2018-11-12T19:32:50.977Z,56.68
2018-11-12T19:35:21.143Z,56.47
2018-11-12T19:37:50.130Z,56.61
2018-11-12T19:40:22.086Z,56.50
2018-11-12T19:42:52.432Z,56.88
2018-11-12T19:45:21.436Z,57.06
2018-11-12T19:47:51.311Z,57.12
2018-11-12T19:50:21.681Z,57.03
2018-11-12T19:52:52.048Z,56.86
2018-11-12T19:55:21.117Z,57.66
2018-11-12T19:57:50.302Z,57.26
2018-11-12T20:00:20.857Z,57.68
2018-11-12T20:02:51.375Z,56.63
2018-11-12T20:05:20.414Z,56.66
2018-11-12T20:07:49.460Z,56.88
2018-11-12T20:10:20.384Z,56.83
2018-11-12T20:12:49.508Z,57.08
2018-11-12T20:15:19.666Z,57.22
2018-11-12T20:17:49.210Z,57.42
2018-11-12T20:20:19.328Z,57.17
2018-11-12T20:22:49.013Z,57.25
2018-11-12T20:25:18.822Z,56.56
2018-11-12T20:27:48.392Z,57.05
2018-11-12T20:30:21.176Z,57.13
2018-11-12T20:32:50.225Z,57.24
2018-11-12T20:35:19.020Z,57.54
2018-11-12T20:37:48.155Z,57.21
2018-11-12T20:40:17.823Z,57.15
2018-11-12T20:42:47.894Z,58.79
2018-11-12T20:45:17.724Z,58.45
2018-11-12T20:47:47.880Z,57.73
2018-11-12T20:50:17.741Z,57.64
2018-11-12T20:52:46.631Z,57.59
2018-11-12T20:55:16.501Z,56.64
2018-11-12T20:57:46.055Z,57.92
2018-11-12T21:00:18.903Z,57.74
2018-11-12T21:02:49.222Z,56.60
2018-11-12T21:05:18.618Z,57.69
2018-11-12T21:07:47.408Z,57.77
2018-11-12T21:10:17.407Z,57.90
2018-11-12T21:12:46.991Z,59.37
2018-11-12T21:15:17.235Z,58.53
2018-11-12T21:17:46.236Z,58.26
2018-11-12T21:20:24.003Z,59.33
2018-11-12T21:22:53.693Z,57.66
2018-11-12T21:25:23.735Z,57.46
2018-11-12T21:27:52.668Z,57.25
2018-11-12T21:30:22.717Z,58.19
2018-11-12T21:32:52.069Z,59.39
2018-11-12T21:35:21.129Z,57.72
2018-11-12T21:37:51.490Z,57.05
2018-11-12T21:40:21.847Z,57.08
2018-11-12T21:42:51.005Z,57.38
2018-11-12T21:45:22.669Z,57.60
2018-11-12T21:47:51.717Z,58.32
2018-11-12T21:50:21.468Z,58.50
2018-11-12T21:52:50.626Z,57.87
2018-11-12T21:55:19.794Z,58.13
2018-11-12T21:57:48.944Z,58.32
2018-11-12T22:00:23.131Z,57.71
2018-11-12T22:02:54.197Z,57.27
2018-11-12T22:05:23.119Z,56.83
2018-11-12T22:07:51.899Z,58.42
2018-11-12T22:10:20.693Z,58.54
2018-11-12T22:12:50.620Z,58.38
2018-11-12T22:15:19.664Z,59.23
2018-11-12T22:17:48.468Z,58.95
2018-11-12T22:20:19.114Z,58.61
2018-11-12T22:22:47.906Z,57.53
2018-11-12T22:25:18.330Z,57.98
2018-11-12T22:27:49.617Z,57.37
2018-11-12T22:30:20.008Z,57.97
2018-11-12T22:32:50.103Z,58.81
2018-11-12T22:35:18.963Z,57.29
2018-11-12T22:37:48.195Z,57.27
2018-11-12T22:40:17.559Z,57.89
2018-11-12T22:42:48.051Z,57.85
2018-11-12T22:45:19.187Z,58.61
2018-11-12T22:47:48.656Z,57.47
2018-11-12T22:50:17.655Z,56.55
2018-11-12T22:52:46.704Z,57.15
2018-11-12T22:55:16.697Z,57.79
2018-11-12T22:57:45.738Z,57.21
2018-11-12T23:00:20.719Z,57.51
2018-11-12T23:02:50.152Z,56.89
2018-11-12T23:05:19.602Z,57.13
2018-11-12T23:07:49.265Z,57.35
2018-11-12T23:10:18.981Z,57.81
2018-11-12T23:12:47.858Z,58.00
2018-11-12T23:15:17.472Z,58.57
2018-11-12T23:17:46.668Z,57.77
2018-11-12T23:20:19.379Z,57.95
2018-11-12T23:22:48.960Z,58.04
2018-11-12T23:25:18.043Z,57.27
2018-11-12T23:27:47.765Z,58.07
2018-11-12T23:30:17.711Z,57.62
2018-11-12T23:32:46.895Z,58.05
2018-11-12T23:35:16.971Z,57.02
2018-11-12T23:37:46.374Z,57.88
2018-11-12T23:40:15.597Z,57.99
2018-11-12T23:42:45.320Z,57.72
2018-11-12T23:45:14.587Z,57.09
2018-11-12T23:47:43.395Z,57.67
2018-11-12T23:50:15.026Z,56.73
2018-11-12T23:52:44.730Z,56.71
2018-11-12T23:55:14.086Z,56.69
2018-11-12T23:57:43.262Z,57.75
